map of UBEE home
UBEE - Airport
Location
City:  Yevlakh, Yevlax (Yevlakh), Azerbaijan
Near (Alt.):Evlakh
ICAO:UBEE

Details
Type:Airport (Aerodrome, Airfield)
Use:Public/Civil
Latitude:4037'55"N (40.631944)
Longitude:4708'31"E (47.141944)
Elevation:49 ft (15 m)
Variation:6.41E (WMM2015 magnetic declination)
0.07 annual change
Runways:1
Longest:5249 × 115 ft (1600 × 35 m), paved

Time
Time Zone:UTC+4
Local Time:

Weather
METAR:UBEE 161500Z 13006KT 7000 NSC 07/03 Q1027 R30/CLRD// NOSIG

Related Locations
Nearby:
Farthest:GMR: 11215 mi / 18049 km
Mangareva [Totegegie], Gambier Islands, PF

Find:

   beyond  
but within

Other Information
Maps:
NOTAMs:
Links:
Sources:

  
  • flag of Azerbaijan
  

Sectional Chart

Flight Planning
at skyvector.com

Satellite Image

Google Maps Satellite view

 

Copyright © 2004-2018 Karl L. Swartz. All rights reserved.
The Great Circle Mapper name and logo are trademarks of the Great Circle Mapper.
All other trademarks mentioned herein belong to their respective owners.
Please see credits for attibutions and further copyright information.

  Follow gcmap on Facebook Follow gcmap on Twitter Follow gcmap on Google+ GCmap on LinkedIn

hCard Microformat

Geo Microformat